Time;durP1;ratioP1;P1;durP2;ratioP2;P2;SDS_P1;SDS_P2;PMS_P1;PMS_P2;Temp;Humidity;BMP_temperature;BMP_pressure;BME280_temperature;BME280_humidity;BME280_pressure;Samples;Min_cycle;Max_cycle;Signal;HPM_P1;HPM_P2
2021/12/19 00:00:37;;;;;;;2.22;1.42;;;;;;;7.82;47.37;102068.02;1613448;88;21045;-52
2021/12/19 00:08:52;;;;;;;2.87;1.77;;;;;;;7.83;47.96;102063.27;1576972;90;21087;-53
2021/12/19 00:11:22;;;;;;;2.08;1.65;;;;;;;7.88;48.06;102055.12;1581458;89;21030;-51
2021/12/19 00:13:51;;;;;;;1.70;1.60;;;;;;;7.87;48.21;102048.19;1565114;90;21167;-51
2021/12/19 00:16:18;;;;;;;1.87;1.50;;;;;;;7.91;48.38;102044.77;1600160;87;21097;-51
2021/12/19 00:18:46;;;;;;;1.57;1.20;;;;;;;7.93;48.54;102048.25;1671096;85;21141;-52
2021/12/19 00:21:17;;;;;;;2.08;1.50;;;;;;;7.97;48.61;102034.91;1689369;84;21579;-51
2021/12/19 00:23:45;;;;;;;1.65;1.55;;;;;;;7.99;48.50;102027.60;1669791;85;21059;-53
2021/12/19 00:26:12;;;;;;;1.40;1.30;;;;;;;8.02;48.51;102023.72;1657505;85;21076;-51
2021/12/19 00:28:39;;;;;;;1.52;1.40;;;;;;;8.05;48.37;102013.39;1638314;87;21091;-52
2021/12/19 00:31:06;;;;;;;1.45;1.35;;;;;;;8.06;48.27;102016.41;1634176;87;21544;-51
2021/12/19 00:33:32;;;;;;;2.40;1.95;;;;;;;8.05;48.07;102010.80;1634335;87;21520;-52
2021/12/19 00:35:59;;;;;;;2.30;1.90;;;;;;;8.05;48.19;102015.98;1634320;87;21051;-52
2021/12/19 00:38:26;;;;;;;1.80;1.70;;;;;;;8.04;48.25;102016.83;1663306;86;21071;-52
2021/12/19 00:40:53;;;;;;;2.25;1.95;;;;;;;8.03;48.36;102009.92;1662701;85;21059;-52
2021/12/19 00:43:32;;;;;;;2.30;1.80;;;;;;;8.01;48.34;102006.45;1656021;85;21686;-52
2021/12/19 00:45:52;;;;;;;;;;;;;;;8.01;48.36;101999.97;1663713;85;21098;-51
2021/12/19 00:48:19;;;;;;;1.98;1.77;;;;;;;8.03;48.19;102002.14;1694221;83;20249;-51
2021/12/19 00:50:45;;;;;;;2.60;2.20;;;;;;;8.04;48.56;101999.10;1763003;80;21002;-51
2021/12/19 00:53:12;;;;;;;2.77;2.20;;;;;;;8.04;48.54;101996.09;1756708;80;21046;-51
2021/12/19 00:55:39;;;;;;;2.83;2.10;;;;;;;8.04;48.31;101997.38;1758135;80;21010;-51
2021/12/19 00:58:05;;;;;;;4.45;2.80;;;;;;;8.03;48.34;101990.48;1766501;80;21009;-51
2021/12/19 01:00:34;;;;;;;2.83;2.30;;;;;;;8.01;48.65;101988.30;1765762;80;21601;-51
2021/12/19 01:03:01;;;;;;;2.47;2.15;;;;;;;8.01;48.60;101987.43;1784000;80;21042;-52
2021/12/19 01:05:31;;;;;;;3.70;2.20;;;;;;;8.00;48.65;101982.66;1784578;80;21058;-51
2021/12/19 01:07:58;;;;;;;2.27;2.08;;;;;;;7.99;48.77;101981.37;1781146;80;21002;-51
2021/12/19 01:10:24;;;;;;;1.90;1.70;;;;;;;8.00;48.60;101983.96;1763180;80;21018;-51
2021/12/19 01:12:52;;;;;;;2.30;2.10;;;;;;;8.00;48.56;101982.66;1757424;80;21066;-51
2021/12/19 01:15:19;;;;;;;3.25;2.08;;;;;;;8.01;48.57;101976.64;1760887;80;21035;-51
2021/12/19 01:17:45;;;;;;;2.35;2.15;;;;;;;8.01;48.65;101968.87;1698797;83;21035;-51
2021/12/19 01:20:20;;;;;;;2.50;2.30;;;;;;;8.01;48.74;101972.75;1716273;82;21494;-51
2021/12/19 01:22:47;;;;;;;2.83;2.55;;;;;;;8.00;48.71;101968.41;1666891;85;21088;-51
2021/12/19 01:25:13;;;;;;;2.65;2.37;;;;;;;7.98;48.72;101968.83;1678134;85;21139;-51
2021/12/19 01:27:40;;;;;;;2.87;2.47;;;;;;;7.97;48.81;101960.62;1679445;84;21054;-50
2021/12/19 01:30:08;;;;;;;3.50;2.92;;;;;;;7.97;48.95;101959.75;1726186;82;21038;-51
2021/12/19 01:32:35;;;;;;;3.08;2.77;;;;;;;7.97;49.10;101959.33;1734065;81;21065;-51
2021/12/19 01:35:02;;;;;;;2.60;2.40;;;;;;;7.97;49.10;101955.45;1728508;81;21034;-51
2021/12/19 01:37:29;;;;;;;2.90;2.60;;;;;;;8.00;49.18;101945.50;1734416;81;21124;-51
2021/12/19 01:39:55;;;;;;;2.58;2.17;;;;;;;8.04;49.09;101939.48;1747100;82;21046;-51
2021/12/19 01:42:23;;;;;;;2.60;2.40;;;;;;;8.04;49.12;101936.47;1734365;82;20980;-51
2021/12/19 01:44:50;;;;;;;3.27;2.67;;;;;;;8.04;49.11;101936.47;1736083;81;21060;-51
2021/12/19 01:47:16;;;;;;;2.87;2.17;;;;;;;8.02;49.06;101926.52;1735217;81;21038;-51
2021/12/19 01:49:43;;;;;;;2.50;2.30;;;;;;;8.01;49.27;101926.09;1740380;81;21046;-51
2021/12/19 01:52:11;;;;;;;4.25;2.20;;;;;;;7.97;49.37;101921.75;1726365;82;21475;-51
2021/12/19 01:54:38;;;;;;;3.08;2.50;;;;;;;7.96;49.68;101914.81;1676988;82;21108;-51
2021/12/19 01:57:05;;;;;;;2.83;2.30;;;;;;;7.99;49.56;101913.98;1731789;82;21050;-53
2021/12/19 01:59:31;;;;;;;2.50;2.30;;;;;;;8.00;49.60;101906.20;1732356;81;21149;-51
2021/12/19 02:01:58;;;;;;;3.55;2.80;;;;;;;8.05;49.41;101905.82;1743937;81;21030;-51
2021/12/19 02:04:30;;;;;;;2.80;2.33;;;;;;;8.08;49.36;101902.36;1730819;82;21101;-51
2021/12/19 02:06:53;;;;;;;2.70;2.50;;;;;;;8.09;49.24;101895.91;1729648;81;21033;-51
2021/12/19 02:09:21;;;;;;;2.20;2.00;;;;;;;8.09;49.27;101890.73;1733734;81;21094;-51
2021/12/19 02:11:48;;;;;;;2.40;2.20;;;;;;;8.09;49.17;101887.25;1741028;82;21042;-51
2021/12/19 02:14:15;;;;;;;2.83;2.45;;;;;;;8.04;49.23;101878.15;1729627;82;21026;-51
2021/12/19 02:16:42;;;;;;;2.45;2.25;;;;;;;8.02;49.29;101875.98;1723578;82;21022;-53
2021/12/19 02:19:11;;;;;;;2.22;2.02;;;;;;;8.02;49.40;101875.10;1740282;80;21010;-52
2021/12/19 02:21:40;;;;;;;2.30;2.10;;;;;;;8.00;49.32;101868.63;1754375;80;21025;-51
2021/12/19 02:24:09;;;;;;;3.00;2.20;;;;;;;7.99;49.46;101859.12;1770104;80;21057;-51
2021/12/19 02:26:39;;;;;;;2.22;2.02;;;;;;;8.00;49.53;101861.27;1745934;81;21057;-51
2021/12/19 02:29:06;;;;;;;3.12;2.42;;;;;;;7.99;49.59;101854.36;1767509;80;20983;-51
2021/12/19 02:31:34;;;;;;;3.17;2.40;;;;;;;7.99;49.59;101843.58;1774379;80;21066;-51
2021/12/19 02:34:06;;;;;;;2.42;2.20;;;;;;;8.00;49.58;101841.41;1777731;80;21034;-51
2021/12/19 02:50:18;;;;;;;2.55;1.98;;;;;;;7.97;49.94;101816.78;1753102;80;20991;-51
2021/12/19 02:52:45;;;;;;;3.02;2.30;;;;;;;7.97;49.98;101805.12;1693013;84;21119;-51
2021/12/19 02:55:14;;;;;;;2.92;2.10;;;;;;;7.98;49.87;101805.55;1659289;85;21573;-52
2021/12/19 02:57:41;;;;;;;2.52;2.33;;;;;;;7.98;49.87;101801.66;1659344;85;21081;-51
2021/12/19 03:00:12;;;;;;;2.77;2.40;;;;;;;7.98;49.93;101805.55;1660432;85;21602;-51
2021/12/19 03:02:38;;;;;;;2.72;2.40;;;;;;;7.97;49.97;101805.12;1628612;86;21086;-52
2021/12/19 03:05:05;;;;;;;2.50;2.22;;;;;;;7.93;50.09;101808.52;1645637;85;21582;-51
2021/12/19 03:07:32;;;;;;;2.47;2.27;;;;;;;7.92;50.21;101805.93;1653389;85;21050;-51
2021/12/19 03:17:57;;;;;;;3.08;2.37;;;;;;;7.94;50.40;101808.98;1635990;86;21082;-51
2021/12/19 03:20:26;;;;;;;2.67;2.37;;;;;;;7.95;50.45;101809.43;1640875;86;21121;-51
2021/12/19 03:22:54;;;;;;;2.37;2.17;;;;;;;7.96;50.47;101804.67;1665678;85;21138;-52
2021/12/19 03:25:21;;;;;;;2.75;2.52;;;;;;;7.95;50.58;101796.47;1661468;85;21066;-51
2021/12/19 03:27:48;;;;;;;3.77;2.27;;;;;;;7.94;50.60;101800.33;1643875;86;21059;-53
2021/12/19 03:30:14;;;;;;;2.22;2.02;;;;;;;7.94;50.73;101798.61;1649039;86;21082;-51
2021/12/19 03:32:42;;;;;;;3.58;2.50;;;;;;;7.92;50.99;101796.44;1641560;86;21102;-52
2021/12/19 03:35:09;;;;;;;2.80;2.55;;;;;;;7.93;50.99;101792.97;1642205;86;21121;-51
2021/12/19 03:37:36;;;;;;;2.62;2.42;;;;;;;7.95;50.90;101798.19;1642173;86;21062;-51
2021/12/19 03:40:10;;;;;;;2.77;2.45;;;;;;;7.96;50.90;101794.30;1645386;86;21086;-51
2021/12/19 03:42:41;;;;;;;2.58;2.37;;;;;;;7.98;50.90;101792.59;1648093;86;21046;-51
2021/12/19 03:45:10;;;;;;;2.60;2.35;;;;;;;7.99;50.82;101782.67;1600968;88;21080;-52
2021/12/19 03:47:38;;;;;;;3.15;2.60;;;;;;;8.00;50.88;101781.80;1600686;88;21552;-52
2021/12/19 03:50:06;;;;;;;3.35;2.75;;;;;;;7.99;50.92;101781.38;1622870;87;21610;-52
2021/12/19 03:52:33;;;;;;;3.20;2.50;;;;;;;7.97;50.88;101779.20;1609259;87;21053;-52
2021/12/19 03:54:59;;;;;;;4.47;2.92;;;;;;;7.97;51.05;101776.61;1639834;86;21063;-51
2021/12/19 03:57:26;;;;;;;3.12;2.70;;;;;;;7.97;51.14;101779.20;1632072;86;21116;-51
2021/12/19 03:59:53;;;;;;;2.90;2.45;;;;;;;7.97;51.14;101766.25;1664149;84;21179;-53
2021/12/19 04:02:26;;;;;;;3.37;2.80;;;;;;;8.01;51.16;101763.23;1664610;84;21052;-52
2021/12/19 04:04:48;;;;;;;3.40;3.00;;;;;;;8.00;51.13;101753.28;1668121;84;21122;-52
2021/12/19 04:07:14;;;;;;;3.42;2.85;;;;;;;8.01;51.26;101755.45;1666344;84;21101;-51
2021/12/19 04:09:42;;;;;;;2.65;2.45;;;;;;;8.01;51.32;101760.22;1677948;83;21067;-52
2021/12/19 04:12:09;;;;;;;4.03;3.00;;;;;;;8.01;51.35;101757.62;1692310;83;21064;-52
2021/12/19 04:14:36;;;;;;;4.00;2.83;;;;;;;8.01;51.44;101742.08;1698141;83;21117;-51
2021/12/19 04:17:03;;;;;;;3.27;2.98;;;;;;;8.03;51.45;101744.24;1708123;83;21561;-51
2021/12/19 04:19:30;;;;;;;5.05;3.20;;;;;;;8.08;51.35;101746.41;1702376;83;21106;-52
2021/12/19 04:21:57;;;;;;;4.60;3.05;;;;;;;8.10;51.27;101730.42;1654509;85;21508;-51
2021/12/19 04:24:23;;;;;;;3.55;3.08;;;;;;;8.13;51.23;101744.71;1696419;83;21571;-51
2021/12/19 04:26:49;;;;;;;3.25;2.95;;;;;;;8.11;51.26;101738.66;1703424;83;21005;-51
2021/12/19 04:29:16;;;;;;;3.27;2.98;;;;;;;8.11;51.26;101742.97;1710500;83;21051;-51
2021/12/19 04:31:43;;;;;;;3.30;3.00;;;;;;;8.08;51.34;101741.22;1678653;84;21138;-51
2021/12/19 04:34:09;;;;;;;3.17;2.87;;;;;;;8.07;51.45;101738.20;1680102;84;21045;-52
2021/12/19 04:36:40;;;;;;;4.35;2.92;;;;;;;8.08;51.50;101738.63;1680052;84;21075;-51
2021/12/19 05:00:07;;;;;;;4.10;3.25;;;;;;;8.15;51.33;101688.55;1696741;83;21707;-53
2021/12/19 05:05:51;;;;;;;4.70;3.70;;;;;;;8.14;51.31;101686.80;1688332;84;21041;-52
2021/12/19 05:16:16;;;;;;;3.80;3.40;;;;;;;8.07;51.49;101676.42;1681885;84;21315;-52
2021/12/19 05:18:46;;;;;;;3.70;3.40;;;;;;;8.05;51.62;101664.77;1686601;84;21592;-51
2021/12/19 05:21:22;;;;;;;4.37;3.80;;;;;;;8.06;51.68;101657.41;1685137;84;21085;-53
2021/12/19 05:26:14;;;;;;;4.08;3.62;;;;;;;8.07;51.46;101647.91;1683845;84;21620;-51
2021/12/19 05:28:40;;;;;;;4.67;3.90;;;;;;;8.06;51.35;101649.63;1680596;84;21037;-52
2021/12/19 05:31:07;;;;;;;4.08;3.55;;;;;;;8.05;51.35;101650.51;1677376;84;21604;-51
2021/12/19 05:33:34;;;;;;;3.70;3.27;;;;;;;8.04;51.39;101644.88;1668887;85;21181;-51
2021/12/19 05:45:11;;;;;;;5.03;3.95;;;;;;;8.04;51.42;101620.25;1639244;85;21102;-52
2021/12/19 05:46:39;;;;;;;4.87;4.40;;;;;;;8.07;51.31;101617.67;1638320;86;21008;-51
2021/12/19 05:49:06;;;;;;;4.92;4.37;;;;;;;8.07;51.27;101615.09;1680167;84;21049;-51
2021/12/19 05:51:35;;;;;;;4.70;3.98;;;;;;;8.07;51.24;101613.80;1639720;86;21042;-51
2021/12/19 05:54:02;;;;;;;5.83;3.87;;;;;;;8.06;51.18;101608.16;1702858;83;21544;-51
2021/12/19 05:56:29;;;;;;;4.60;3.80;;;;;;;8.06;51.22;101595.20;1750992;80;21506;-51
2021/12/19 05:58:55;;;;;;;4.90;3.67;;;;;;;8.06;51.18;101596.49;1774323;80;21006;-51
2021/12/19 06:01:22;;;;;;;5.17;4.50;;;;;;;8.07;51.34;101600.83;1762009;80;21151;-51
2021/12/19 06:03:48;;;;;;;5.25;4.22;;;;;;;8.10;51.25;101599.52;1765445;80;21035;-52
2021/12/19 06:06:15;;;;;;;4.60;4.20;;;;;;;8.10;51.20;101591.75;1759542;80;21038;-52
2021/12/19 06:08:41;;;;;;;4.67;4.10;;;;;;;8.11;51.16;101605.58;1778254;80;21042;-51
2021/12/19 06:11:08;;;;;;;5.40;4.00;;;;;;;8.11;51.19;101597.80;1771201;80;20966;-51
2021/12/19 06:13:35;;;;;;;5.30;4.80;;;;;;;8.11;51.12;101597.38;1759396;80;20999;-51
2021/12/19 06:16:01;;;;;;;5.42;4.90;;;;;;;8.10;51.13;101591.75;1777982;80;21037;-51
2021/12/19 06:18:29;;;;;;;4.97;4.47;;;;;;;8.10;51.24;101589.16;1783638;80;21030;-51
2021/12/19 06:20:57;;;;;;;5.78;4.12;;;;;;;8.12;51.29;101586.13;1762008;80;21034;-51
2021/12/19 06:23:23;;;;;;;6.90;4.65;;;;;;;8.13;51.25;101581.40;1756739;80;21021;-51
2021/12/19 06:25:50;;;;;;;5.42;4.62;;;;;;;8.14;51.09;101583.11;1784130;80;20983;-51
2021/12/19 06:28:17;;;;;;;5.55;4.40;;;;;;;8.16;50.94;101577.49;1779187;80;21037;-51
2021/12/19 06:30:44;;;;;;;4.90;3.98;;;;;;;8.16;50.92;101574.06;1775159;80;21058;-51
2021/12/19 06:33:11;;;;;;;5.30;4.72;;;;;;;8.15;50.71;101574.48;1758455;80;21009;-51
2021/12/19 06:35:37;;;;;;;6.10;5.08;;;;;;;8.13;50.84;101580.10;1757803;80;21576;-51
2021/12/19 06:38:06;;;;;;;5.90;4.83;;;;;;;8.13;50.90;101582.69;1755012;80;21056;-51
2021/12/19 06:40:34;;;;;;;5.60;4.97;;;;;;;8.13;50.84;101582.69;1764276;80;20998;-51
2021/12/19 06:43:02;;;;;;;6.53;5.10;;;;;;;8.13;50.85;101587.88;1740479;81;21554;-52
2021/12/19 06:45:29;;;;;;;6.87;4.92;;;;;;;8.14;50.80;101579.22;1752938;80;21043;-52
2021/12/19 06:47:55;;;;;;;5.00;4.50;;;;;;;8.17;50.85;101573.19;1756926;80;21051;-50
2021/12/19 06:50:22;;;;;;;6.20;5.17;;;;;;;8.21;50.71;101568.44;1762520;80;21523;-51
2021/12/19 06:52:48;;;;;;;6.85;4.87;;;;;;;8.24;50.64;101565.40;1768846;80;21501;-51
2021/12/19 06:55:16;;;;;;;6.35;5.17;;;;;;;8.28;50.48;101559.84;1748925;80;21530;-52
2021/12/19 06:57:42;;;;;;;6.87;5.22;;;;;;;8.28;50.33;101548.59;1779028;80;21042;-52
2021/12/19 07:00:16;;;;;;;8.43;5.90;;;;;;;8.28;50.18;101545.58;1765921;80;21051;-53
2021/12/19 07:02:44;;;;;;;7.53;5.72;;;;;;;8.29;50.27;101541.23;1702036;83;21045;-51
2021/12/19 07:05:10;;;;;;;7.33;6.12;;;;;;;8.31;50.30;101543.39;1700306;83;21581;-52
2021/12/19 07:07:37;;;;;;;7.10;6.17;;;;;;;8.32;50.23;101530.88;1690171;83;21616;-51
2021/12/19 07:10:06;;;;;;;7.30;6.28;;;;;;;8.34;50.20;101522.66;1706861;83;21087;-51
2021/12/19 07:12:33;;;;;;;7.25;6.20;;;;;;;8.38;50.14;101522.67;1685823;83;21045;-51
2021/12/19 07:15:00;;;;;;;9.73;7.15;;;;;;;8.39;50.05;101519.66;1663623;85;21121;-51
2021/12/19 07:17:26;;;;;;;9.40;7.45;;;;;;;8.38;50.04;101502.34;1675243;83;21021;-52
2021/12/19 07:19:53;;;;;;;9.28;7.33;;;;;;;8.37;50.11;101505.79;1644407;86;21639;-51
2021/12/19 07:22:19;;;;;;;11.28;8.75;;;;;;;8.37;50.22;101501.91;1614340;86;21035;-52
2021/12/19 07:24:46;;;;;;;11.40;9.30;;;;;;;8.37;50.38;101494.13;1684580;83;21010;-51
2021/12/19 07:27:13;;;;;;;11.80;9.73;;;;;;;8.38;50.39;101494.56;1685659;83;21049;-52
2021/12/19 07:29:40;;;;;;;12.65;9.95;;;;;;;8.42;50.38;101493.70;1681758;83;21081;-52
2021/12/19 07:32:07;;;;;;;14.83;10.58;;;;;;;8.46;50.22;101493.70;1684420;83;21048;-51
2021/12/19 07:34:36;;;;;;;18.70;12.20;;;;;;;8.49;50.08;101488.95;1665578;83;21069;-51
2021/12/19 07:37:03;;;;;;;18.10;11.48;;;;;;;8.48;49.98;101482.02;1664729;85;21106;-51
2021/12/19 07:42:08;;;;;;;22.55;12.98;;;;;;;8.50;50.03;101473.80;1689118;83;21138;-51
2021/12/19 07:44:35;;;;;;;22.90;15.80;;;;;;;8.48;50.06;101471.22;1659953;85;21024;-51
2021/12/19 07:47:02;;;;;;;19.55;14.23;;;;;;;8.48;50.12;101463.86;1629981;86;21011;-51
2021/12/19 07:49:29;;;;;;;17.70;12.85;;;;;;;8.49;50.09;101466.90;1644426;86;21087;-51
2021/12/19 07:51:55;;;;;;;16.37;11.88;;;;;;;8.50;50.13;101469.91;1648850;86;21072;-51
2021/12/19 07:54:22;;;;;;;13.18;10.38;;;;;;;8.53;50.14;101460.84;1649628;86;21067;-51
2021/12/19 07:56:48;;;;;;;13.40;11.45;;;;;;;8.56;50.03;101458.22;1648430;86;21112;-51
2021/12/19 07:59:15;;;;;;;15.55;12.82;;;;;;;8.60;49.94;101461.23;1669283;84;21085;-51
2021/12/19 08:01:41;;;;;;;10.32;9.23;;;;;;;8.64;50.00;101456.05;1695304;84;21089;-51
2021/12/19 08:04:08;;;;;;;12.93;10.28;;;;;;;8.68;50.00;101457.76;1696095;84;21111;-51
2021/12/19 08:06:35;;;;;;;11.75;9.68;;;;;;;8.74;49.88;101452.97;1696068;84;21042;-51
2021/12/19 08:09:08;;;;;;;21.15;14.78;;;;;;;8.77;49.83;101447.36;1696276;84;21042;-51
2021/12/19 08:11:39;;;;;;;16.07;11.90;;;;;;;8.83;49.85;101449.06;1739284;81;21081;-51
2021/12/19 08:14:11;;;;;;;13.50;10.28;;;;;;;8.90;49.85;101450.78;1751312;81;21089;-51
2021/12/19 08:16:39;;;;;;;13.40;10.23;;;;;;;8.96;49.69;101443.80;1745470;81;21494;-52
2021/12/19 08:19:06;;;;;;;12.60;9.73;;;;;;;9.05;49.47;101431.22;1744515;81;21089;-51
2021/12/19 08:21:33;;;;;;;13.98;11.55;;;;;;;9.10;49.12;101425.59;1747898;81;20982;-52
2021/12/19 08:24:02;;;;;;;13.80;10.98;;;;;;;9.19;49.20;101428.12;1742353;81;21030;-51
2021/12/19 08:26:29;;;;;;;12.82;10.15;;;;;;;9.26;49.07;101423.33;1739881;81;21015;-51
2021/12/19 08:28:56;;;;;;;17.17;12.53;;;;;;;9.33;48.76;101413.78;1739750;81;21529;-51
2021/12/19 08:31:23;;;;;;;14.25;11.00;;;;;;;9.38;48.54;101414.16;1748196;81;21052;-51
2021/12/19 08:33:50;;;;;;;21.27;14.25;;;;;;;9.42;48.67;101408.08;1747134;81;21591;-51
2021/12/19 08:36:16;;;;;;;17.67;10.80;;;;;;;9.48;48.63;101403.30;1737265;82;21537;-51
2021/12/19 08:38:43;;;;;;;28.92;15.75;;;;;;;9.55;48.76;101394.14;1738894;81;21570;-51
2021/12/19 08:41:09;;;;;;;20.75;13.58;;;;;;;9.61;48.44;101386.30;1766569;80;21616;-51
2021/12/19 08:43:36;;;;;;;11.05;8.50;;;;;;;9.70;48.11;101371.07;1752487;80;21080;-51
2021/12/19 08:46:03;;;;;;;10.72;7.17;;;;;;;9.81;47.76;101368.80;1777233;80;21082;-51
2021/12/19 08:48:29;;;;;;;16.70;11.38;;;;;;;9.89;47.11;101354.88;1758101;80;21617;-51
2021/12/19 08:50:56;;;;;;;14.40;9.48;;;;;;;9.94;46.47;101332.28;1759451;80;21440;-51
2021/12/19 08:53:22;;;;;;;27.60;15.88;;;;;;;9.96;46.44;101333.13;1751563;80;21664;-51
2021/12/19 08:55:49;;;;;;;18.17;12.18;;;;;;;9.98;46.29;101320.98;1755392;80;21505;-51
2021/12/19 08:58:15;;;;;;;11.30;7.90;;;;;;;10.00;46.39;101322.69;1763659;80;20963;-51
2021/12/19 09:00:41;;;;;;;10.50;8.15;;;;;;;10.03;46.26;101302.30;1773536;80;21041;-52
2021/12/19 09:03:09;;;;;;;11.60;8.43;;;;;;;10.03;46.40;101310.10;1760599;80;21050;-51
2021/12/19 09:05:35;;;;;;;10.05;8.20;;;;;;;10.04;46.55;101294.91;1761763;80;21022;-51
2021/12/19 09:08:02;;;;;;;16.95;11.10;;;;;;;10.04;46.82;101305.31;1744354;80;21032;-51
2021/12/19 09:10:29;;;;;;;9.25;7.75;;;;;;;10.03;46.84;101293.20;1770572;80;21074;-51
2021/12/19 09:12:57;;;;;;;10.75;8.38;;;;;;;10.03;46.41;101290.60;1749732;80;21034;-51
2021/12/19 09:15:24;;;;;;;9.43;7.45;;;;;;;9.97;46.27;101278.55;1748603;81;21534;-51
2021/12/19 09:17:51;;;;;;;8.45;7.20;;;;;;;9.92;46.52;101274.25;1780350;80;21510;-51
2021/12/19 09:27:49;;;;;;;11.73;8.75;;;;;;;9.80;47.19;101252.73;1772071;80;21042;-51
2021/12/19 09:30:15;;;;;;;10.23;7.42;;;;;;;9.77;47.02;101238.45;1763371;80;21077;-51
2021/12/19 09:32:43;;;;;;;7.90;7.12;;;;;;;9.76;47.00;101236.75;1770938;80;21522;-51
2021/12/19 09:35:11;;;;;;;7.62;6.80;;;;;;;9.74;47.07;101223.34;1763214;80;21006;-51
2021/12/19 09:37:37;;;;;;;8.25;7.03;;;;;;;9.71;47.26;101229.42;1756829;80;21037;-51
2021/12/19 09:40:11;;;;;;;9.23;7.35;;;;;;;9.70;47.37;101219.92;1756177;80;21474;-51
2021/12/19 09:42:46;;;;;;;8.28;6.67;;;;;;;9.70;47.40;101213.86;1757442;80;21062;-51
2021/12/19 09:45:07;;;;;;;7.75;6.42;;;;;;;9.70;47.38;101205.63;1770587;80;21009;-51
2021/12/19 09:47:34;;;;;;;10.08;7.35;;;;;;;9.73;47.11;101199.08;1780663;80;21018;-51
2021/12/19 09:50:05;;;;;;;13.35;7.15;;;;;;;9.77;46.81;101192.97;1776835;80;20998;-51
2021/12/19 09:52:31;;;;;;;9.08;6.55;;;;;;;9.81;46.58;101188.16;1768985;80;21037;-52
2021/12/19 09:54:57;;;;;;;8.45;7.00;;;;;;;9.89;46.58;101189.82;1762380;80;21536;-51
2021/12/19 09:57:24;;;;;;;10.23;7.75;;;;;;;9.97;46.70;101181.48;1778022;80;21054;-51
2021/12/19 09:59:51;;;;;;;11.03;6.83;;;;;;;10.03;46.69;101184.00;1717355;83;21523;-51
2021/12/19 10:02:18;;;;;;;6.45;5.67;;;;;;;10.08;46.16;101171.79;1734590;82;21033;-52
2021/12/19 10:04:45;;;;;;;6.55;5.37;;;;;;;10.11;45.91;101171.80;1712489;82;21018;-52
2021/12/19 10:07:28;;;;;;;10.60;7.30;;;;;;;10.13;45.52;101163.53;1751229;81;21038;-51
2021/12/19 10:15:19;;;;;;;7.72;5.87;;;;;;;10.18;44.65;101135.74;1601182;88;21603;-51
2021/12/19 10:17:47;;;;;;;14.20;8.18;;;;;;;10.18;44.27;101126.64;1604282;88;21089;-52
2021/12/19 10:20:16;;;;;;;11.80;7.05;;;;;;;10.20;44.46;101131.38;1603148;88;21027;-51
2021/12/19 10:22:46;;;;;;;9.33;6.50;;;;;;;10.22;44.68;101136.12;1607877;87;21124;-51
2021/12/19 10:25:21;;;;;;;37.05;16.02;;;;;;;10.28;44.68;101128.22;1590854;88;21581;-51
2021/12/19 10:27:54;;;;;;;15.80;8.43;;;;;;;10.31;44.81;101115.16;1617772;88;21125;-51
2021/12/19 10:30:37;;;;;;;10.40;6.72;;;;;;;10.36;45.05;101105.56;1599592;88;21127;-51
2021/12/19 10:33:06;;;;;;;9.08;6.25;;;;;;;10.39;45.06;101102.89;1604772;89;21096;-51
2021/12/19 10:35:42;;;;;;;12.05;7.60;;;;;;;10.41;45.10;101095.92;1566030;89;21084;-51
2021/12/19 10:38:27;;;;;;;9.98;6.10;;;;;;;10.41;45.04;101082.91;1597386;88;21082;-51
2021/12/19 10:41:00;;;;;;;7.87;5.87;;;;;;;10.39;44.92;101076.88;1598265;88;21538;-51
2021/12/19 10:43:32;;;;;;;9.20;6.10;;;;;;;10.37;44.80;101076.91;1532069;92;21605;-51
2021/12/19 10:46:02;;;;;;;8.18;6.40;;;;;;;10.36;44.82;101067.84;1554122;91;21049;-51
2021/12/19 10:48:32;;;;;;;6.97;5.90;;;;;;;10.35;44.77;101067.41;1538617;92;21193;-52
2021/12/19 10:51:15;;;;;;;11.68;7.90;;;;;;;10.33;44.81;101049.67;1524423;93;21044;-51
2021/12/19 10:53:53;;;;;;;8.53;5.53;;;;;;;10.32;44.96;101047.53;1544921;91;21578;-51
2021/12/19 10:56:23;;;;;;;8.13;5.67;;;;;;;10.32;44.92;101036.27;1523812;93;21641;-51
2021/12/19 10:58:59;;;;;;;8.48;6.30;;;;;;;10.34;45.12;101040.56;1541551;92;21604;-52
2021/12/19 11:01:41;;;;;;;7.75;5.92;;;;;;;10.37;45.38;101026.63;1510276;94;21183;-51
2021/12/19 11:04:11;;;;;;;14.47;7.78;;;;;;;10.42;45.31;101027.42;1507420;94;21625;-51
2021/12/19 11:06:46;;;;;;;22.70;11.60;;;;;;;10.48;45.31;101037.72;1513188;93;21117;-51
2021/12/19 11:09:28;;;;;;;31.85;11.97;;;;;;;10.52;45.33;101022.47;1595242;86;21016;-51
2021/12/19 11:12:06;;;;;;;;;;;;;;;10.57;45.28;101015.45;1540349;92;21132;-51
2021/12/19 11:14:44;;;;;;;12.10;7.00;;;;;;;10.59;45.11;101009.32;1500367;94;20285;-51
2021/12/19 11:17:21;;;;;;;50.65;19.20;;;;;;;10.60;45.05;101000.64;1481693;95;21094;-50
2021/12/19 11:19:50;;;;;;;23.38;10.45;;;;;;;10.61;45.08;101002.81;1485972;94;21125;-51
2021/12/19 11:22:23;;;;;;;25.17;10.15;;;;;;;10.62;45.23;101007.11;1515365;93;21724;-50
2021/12/19 11:24:59;;;;;;;27.13;10.63;;;;;;;10.61;45.46;100992.40;1519766;93;21107;-51
2021/12/19 11:27:26;;;;;;;15.90;8.75;;;;;;;10.61;45.55;101000.20;1552215;91;21065;-51
2021/12/19 11:29:54;;;;;;;21.55;10.78;;;;;;;10.61;45.84;100995.00;1556762;91;21534;-51
2021/12/19 11:32:27;;;;;;;27.13;11.10;;;;;;;10.61;45.78;100988.03;1552433;91;21585;-51
2021/12/19 11:35:11;;;;;;;16.70;7.85;;;;;;;10.61;45.79;100968.98;1543381;91;21091;-51
2021/12/19 11:37:57;;;;;;;21.05;10.28;;;;;;;10.63;46.00;100957.62;1509229;91;21591;-51
2021/12/19 11:40:23;;;;;;;23.67;10.40;;;;;;;10.69;45.87;100955.37;1471279;95;21684;-51
2021/12/19 11:42:50;;;;;;;16.25;8.45;;;;;;;10.75;45.36;100953.09;1530581;91;21618;-51
2021/12/19 11:48:17;;;;;;;17.42;8.98;;;;;;;10.81;45.32;100952.53;1540899;91;21097;-51
2021/12/19 11:50:58;;;;;;;26.27;10.70;;;;;;;10.85;44.95;100942.48;1469598;95;21145;-51
2021/12/19 11:53:35;;;;;;;25.32;11.45;;;;;;;10.87;45.15;100941.14;1468920;95;21130;-51
2021/12/19 11:58:53;;;;;;;24.07;11.03;;;;;;;10.92;45.09;100920.63;1427194;99;21164;-51
2021/12/19 12:01:30;;;;;;;13.32;6.60;;;;;;;10.97;45.07;100921.84;1433874;99;21231;-51
2021/12/19 12:04:14;;;;;;;22.55;10.28;;;;;;;11.00;44.83;100918.75;1369958;104;21135;-51
2021/12/19 12:06:56;;;;;;;19.30;9.00;;;;;;;11.03;44.91;100900.44;1390903;102;21163;-51
2021/12/19 12:09:30;;;;;;;13.28;7.40;;;;;;;11.06;44.83;100894.31;1347678;105;21174;-51
2021/12/19 12:12:07;;;;;;;17.77;8.28;;;;;;;11.06;44.88;100888.67;1353637;103;21694;-51
2021/12/19 12:14:42;;;;;;;26.25;12.20;;;;;;;11.06;44.98;100883.46;1389482;102;21652;-51
2021/12/19 12:17:21;;;;;;;19.30;9.53;;;;;;;11.08;45.15;100877.77;1389055;102;21137;-51
2021/12/19 12:19:49;;;;;;;12.78;7.72;;;;;;;11.10;45.25;100872.09;1388022;101;21623;-51
2021/12/19 12:28:03;;;;;;;18.95;9.60;;;;;;;11.12;45.23;100848.61;1319270;106;21192;-51
2021/12/19 12:30:29;;;;;;;22.73;10.55;;;;;;;11.09;45.21;100850.83;1334985;105;21227;-51
2021/12/19 12:33:00;;;;;;;21.05;10.18;;;;;;;11.08;45.36;100856.94;1343622;106;21104;-51
2021/12/19 12:35:28;;;;;;;18.87;9.50;;;;;;;11.05;45.37;100847.88;1336189;106;21119;-51
2021/12/19 12:37:55;;;;;;;31.27;13.72;;;;;;;11.01;45.60;100855.34;1338354;105;21136;-51
2021/12/19 12:40:29;;;;;;;19.70;9.53;;;;;;;10.98;45.59;100859.34;1343679;106;21669;-51
2021/12/19 12:43:17;;;;;;;13.83;8.05;;;;;;;10.93;45.88;100856.40;1346880;105;21702;-51
2021/12/19 12:46:02;;;;;;;15.50;8.13;;;;;;;10.90;45.95;100862.52;1337499;102;21240;-51
2021/12/19 12:49:01;;;;;;;14.98;8.43;;;;;;;10.88;46.16;100864.30;1394014;101;21211;-51
2021/12/19 12:51:46;;;;;;;12.03;7.60;;;;;;;10.88;46.20;100874.72;1389012;102;21638;-51
2021/12/19 12:54:21;;;;;;;9.05;6.40;;;;;;;10.87;46.34;100873.02;1395841;102;21181;-50
2021/12/19 12:56:51;;;;;;;7.90;5.75;;;;;;;10.87;46.54;100867.81;1438154;99;21152;-51
2021/12/19 12:59:24;;;;;;;12.40;7.62;;;;;;;10.87;46.67;100874.32;1407689;100;21125;-51
2021/12/19 13:02:05;;;;;;;11.93;7.75;;;;;;;10.85;46.79;100867.42;1392150;100;21284;-51
2021/12/19 13:04:23;;;;;;;13.90;8.75;;;;;;;10.82;46.85;100843.61;1403272;99;21174;-51
2021/12/19 13:07:04;;;;;;;12.73;8.10;;;;;;;10.80;46.93;100838.88;1408317;98;21131;-51
2021/12/19 13:09:34;;;;;;;;;;;;;;;10.77;46.93;100848.07;1400212;101;21218;-51
2021/12/19 13:12:28;;;;;;;10.05;7.40;;;;;;;10.76;47.02;100850.25;1393004;101;20132;-51